Time;durP1;ratioP1;P1;durP2;ratioP2;P2;SDS_P1;SDS_P2;PMS_P1;PMS_P2;Temp;Humidity;BMP_temperature;BMP_pressure;BME280_temperature;BME280_humidity;BME280_pressure;Samples;Min_cycle;Max_cycle;Signal;HPM_P1;HPM_P2
2023/08/15 00:00:41;;;;;;;;;;;;;;;22.32;58.24;101010.75;4149855;28;20008;-64
2023/08/15 00:02:42;;;;;;;;;;;;;;;22.32;57.89;101002.72;4148809;28;19925;-64
2023/08/15 00:04:44;;;;;;;;;;;;;;;22.31;57.97;101004.56;4149463;28;19925;-64
2023/08/15 00:06:45;;;;;;;;;;;;;;;22.31;58.33;101001.88;4150169;28;19925;-63
2023/08/15 00:08:53;;;;;;;;;;;;;;;22.31;57.98;101004.56;4149832;28;19925;-64
2023/08/15 00:10:54;;;;;;;;;;;;;;;22.31;58.07;101006.41;4149994;28;19929;-64
2023/08/15 00:12:56;;;;;;;;;;;;;;;22.30;58.11;101002.84;4149917;28;20020;-64
2023/08/15 00:14:57;;;;;;;;;;;;;;;22.31;58.35;101004.56;4149059;28;19925;-65
2023/08/15 00:16:59;;;;;;;;;;;;;;;22.30;58.05;101007.38;4149911;28;20016;-64
2023/08/15 00:19:02;;;;;;;;;;;;;;;22.30;58.25;101005.53;4149684;28;20379;-65
2023/08/15 00:21:04;;;;;;;;;;;;;;;22.31;58.45;101003.72;4149955;28;19932;-64
2023/08/15 00:23:06;;;;;;;;;;;;;;;22.30;58.11;101005.53;4149529;28;19930;-65
2023/08/15 00:25:07;;;;;;;;;;;;;;;22.29;58.33;100994.94;4149027;28;19925;-64
2023/08/15 00:27:09;;;;;;;;;;;;;;;22.29;58.18;100995.78;4149749;28;19929;-64
2023/08/15 00:29:10;;;;;;;;;;;;;;;22.29;58.19;100998.47;4149724;28;19936;-65
2023/08/15 00:31:12;;;;;;;;;;;;;;;22.29;58.35;101006.50;4149528;28;20012;-64
2023/08/15 00:33:13;;;;;;;;;;;;;;;22.29;58.29;101000.31;4149670;28;19956;-64
2023/08/15 00:35:15;;;;;;;;;;;;;;;22.28;58.28;100994.06;4149055;28;19980;-64
2023/08/15 00:37:17;;;;;;;;;;;;;;;22.29;58.47;100995.78;4149425;28;19925;-65
2023/08/15 00:39:19;;;;;;;;;;;;;;;22.28;58.45;100999.44;4149454;28;19944;-64
2023/08/15 00:41:20;;;;;;;;;;;;;;;22.28;58.13;100998.59;4149489;28;20409;-64
2023/08/15 00:43:22;;;;;;;;;;;;;;;22.28;58.52;100998.59;4149514;28;19925;-64
2023/08/15 00:45:23;;;;;;;;;;;;;;;22.27;58.33;100999.56;4147633;28;20025;-64
2023/08/15 00:47:25;;;;;;;;;;;;;;;22.26;58.19;101003.22;4149389;28;19937;-64
2023/08/15 00:49:27;;;;;;;;;;;;;;;22.26;58.53;101012.13;4149448;28;19925;-64
2023/08/15 00:51:29;;;;;;;;;;;;;;;22.26;58.70;101005.91;4149383;28;19925;-64
2023/08/15 00:53:32;;;;;;;;;;;;;;;22.26;58.26;101003.22;4149375;28;19926;-64
2023/08/15 00:55:34;;;;;;;;;;;;;;;22.26;58.43;101008.56;4148869;28;19931;-64
2023/08/15 00:57:36;;;;;;;;;;;;;;;22.25;58.48;101009.53;4149087;28;19926;-64
2023/08/15 00:59:39;;;;;;;;;;;;;;;22.25;58.43;101006.88;4148877;28;19961;-64
2023/08/15 01:01:41;;;;;;;;;;;;;;;22.25;58.52;101002.38;4149386;28;19925;-63
2023/08/15 01:03:42;;;;;;;;;;;;;;;22.25;58.52;101009.53;4148825;28;19925;-64
2023/08/15 01:05:44;;;;;;;;;;;;;;;22.25;58.58;101006.88;4149084;28;19926;-63
2023/08/15 01:07:46;;;;;;;;;;;;;;;22.24;58.66;101006.03;4149069;28;19925;-64
2023/08/15 01:09:48;;;;;;;;;;;;;;;22.24;58.65;101005.19;4149165;28;19926;-63
2023/08/15 01:12:09;;;;;;;;;;;;;;;22.23;58.63;100995.44;4148834;28;19937;-64
2023/08/15 01:14:15;;;;;;;;;;;;;;;22.22;58.62;101002.63;4147703;28;19930;-64
2023/08/15 01:16:23;;;;;;;;;;;;;;;22.22;58.53;101007.97;4148797;28;19933;-64
2023/08/15 01:18:36;;;;;;;;;;;;;;;22.22;58.35;101007.97;4148899;28;19929;-64
2023/08/15 01:20:38;;;;;;;;;;;;;;;22.21;58.43;101003.59;4148903;28;19929;-65
2023/08/15 01:22:42;;;;;;;;;;;;;;;22.21;58.62;101010.78;4148947;28;19932;-65
2023/08/15 01:24:45;;;;;;;;;;;;;;;22.21;58.68;101008.09;4148159;28;20467;-63
2023/08/15 01:26:46;;;;;;;;;;;;;;;22.21;58.76;101024.19;4148852;28;19965;-64
2023/08/15 01:28:48;;;;;;;;;;;;;;;22.21;58.49;101016.13;4148493;28;19925;-64
2023/08/15 01:30:56;;;;;;;;;;;;;;;22.21;58.72;101016.97;4148891;28;19973;-64
2023/08/15 01:33:04;;;;;;;;;;;;;;;22.20;58.29;101017.97;4148874;28;20016;-64
2023/08/15 01:35:11;;;;;;;;;;;;;;;22.20;58.62;101023.34;4148031;28;20008;-64
2023/08/15 01:37:27;;;;;;;;;;;;;;;22.20;58.61;101023.34;4148497;28;19925;-63
2023/08/15 01:39:30;;;;;;;;;;;;;;;22.21;58.75;101018.81;4148646;28;19932;-65
2023/08/15 01:41:33;;;;;;;;;;;;;;;22.21;58.37;101026.84;4148607;28;19926;-64
2023/08/15 01:43:36;;;;;;;;;;;;;;;22.19;58.52;101021.63;4148324;28;19961;-64
2023/08/15 01:45:38;;;;;;;;;;;;;;;22.20;58.76;101025.16;4148003;28;19932;-65
2023/08/15 01:47:39;;;;;;;;;;;;;;;22.18;58.50;101028.81;4147268;28;20466;-65
2023/08/15 01:49:41;;;;;;;;;;;;;;;22.18;58.86;101030.63;4148405;28;19925;-65
2023/08/15 01:51:42;;;;;;;;;;;;;;;22.18;58.78;101039.50;4148502;28;20020;-65
2023/08/15 01:53:44;;;;;;;;;;;;;;;22.20;58.41;101038.53;4148462;28;19930;-64
2023/08/15 01:55:45;;;;;;;;;;;;;;;22.19;58.71;101040.38;4146633;28;19929;-65
2023/08/15 01:57:47;;;;;;;;;;;;;;;22.18;58.60;101046.72;4147248;28;19925;-65
2023/08/15 01:59:48;;;;;;;;;;;;;;;22.18;58.87;101050.22;4147048;28;19925;-65
2023/08/15 02:01:50;;;;;;;;;;;;;;;22.17;58.54;101045.84;4148215;28;19957;-64
2023/08/15 02:03:51;;;;;;;;;;;;;;;22.17;58.69;101045.00;4148268;28;19933;-65
2023/08/15 02:05:53;;;;;;;;;;;;;;;22.17;58.44;101055.72;4147960;28;20375;-64
2023/08/15 02:07:54;;;;;;;;;;;;;;;22.17;58.52;101058.41;4148293;28;19929;-65
2023/08/15 02:09:56;;;;;;;;;;;;;;;22.16;58.67;101057.56;4148356;28;19929;-64
2023/08/15 02:11:57;;;;;;;;;;;;;;;22.16;58.73;101054.88;4147701;28;19996;-64
2023/08/15 02:13:59;;;;;;;;;;;;;;;22.16;58.44;101054.00;4146315;28;19929;-65
2023/08/15 02:16:01;;;;;;;;;;;;;;;22.16;58.54;101052.19;4147975;28;20040;-64
2023/08/15 02:18:02;;;;;;;;;;;;;;;22.15;58.79;101053.16;4148156;28;19932;-65
2023/08/15 02:20:04;;;;;;;;;;;;;;;22.15;58.70;101047.81;4148178;28;19979;-65
2023/08/15 02:22:06;;;;;;;;;;;;;;;22.14;58.60;101048.78;4148241;28;19956;-64
2023/08/15 02:24:07;;;;;;;;;;;;;;;22.14;58.73;101056.81;4147641;28;19926;-63
2023/08/15 02:26:09;;;;;;;;;;;;;;;22.14;58.68;101056.81;4147550;28;19925;-65
2023/08/15 02:28:11;;;;;;;;;;;;;;;22.14;58.52;101058.63;4148124;28;20015;-64
2023/08/15 02:30:12;;;;;;;;;;;;;;;22.14;58.90;101051.47;4148237;28;20406;-65
2023/08/15 02:32:14;;;;;;;;;;;;;;;22.13;58.52;101057.78;4147992;28;19926;-64
2023/08/15 02:34:17;;;;;;;;;;;;;;;22.13;58.95;101056.94;4147429;28;20028;-65
2023/08/15 02:36:18;;;;;;;;;;;;;;;22.13;58.58;101067.66;4147838;28;20016;-65
2023/08/15 02:38:20;;;;;;;;;;;;;;;22.13;59.01;101063.16;4147942;28;19996;-64
2023/08/15 02:40:24;;;;;;;;;;;;;;;22.13;58.97;101054.28;4146347;28;19972;-64
2023/08/15 02:42:25;;;;;;;;;;;;;;;22.12;58.92;101047.19;4146867;28;19926;-64
2023/08/15 02:44:27;;;;;;;;;;;;;;;22.12;58.94;101056.06;4147464;28;20380;-65
2023/08/15 02:46:28;;;;;;;;;;;;;;;22.12;58.94;101060.59;4147984;28;20027;-64
2023/08/15 02:48:30;;;;;;;;;;;;;;;22.11;59.14;101058.88;4148006;28;19925;-64
2023/08/15 02:50:31;;;;;;;;;;;;;;;22.12;59.01;101050.72;4148102;28;19932;-65
2023/08/15 02:52:33;;;;;;;;;;;;;;;22.11;58.74;101056.22;4148075;28;19926;-64
2023/08/15 02:54:34;;;;;;;;;;;;;;;22.11;58.94;101058.88;4147034;28;19926;-64
2023/08/15 02:56:36;;;;;;;;;;;;;;;22.09;59.06;101055.47;4147780;28;19929;-64
2023/08/15 02:58:38;;;;;;;;;;;;;;;22.11;58.82;101056.22;4147871;28;19930;-64
2023/08/15 03:00:39;;;;;;;;;;;;;;;22.09;59.09;101050.97;4147784;28;19930;-64
2023/08/15 03:02:41;;;;;;;;;;;;;;;22.09;59.01;101047.44;4147769;28;20359;-64
2023/08/15 03:04:43;;;;;;;;;;;;;;;22.08;59.02;101054.63;4147184;28;19932;-63
2023/08/15 03:06:45;;;;;;;;;;;;;;;22.08;58.85;101054.63;4147859;28;19931;-64
2023/08/15 03:08:47;;;;;;;;;;;;;;;22.07;59.15;101055.59;4149746;28;19925;-64
2023/08/15 03:10:50;;;;;;;;;;;;;;;22.08;59.17;101062.66;4150814;28;19925;-64
2023/08/15 03:12:51;;;;;;;;;;;;;;;22.08;58.80;101056.44;4150891;28;19933;-65
2023/08/15 03:14:53;;;;;;;;;;;;;;;22.07;59.15;101047.56;4150067;28;19926;-65
2023/08/15 03:16:55;;;;;;;;;;;;;;;22.07;58.91;101052.09;4150799;28;20352;-65
2023/08/15 03:18:56;;;;;;;;;;;;;;;22.06;58.92;101051.22;4150726;28;19929;-64
2023/08/15 03:20:59;;;;;;;;;;;;;;;22.07;58.92;101041.38;4150689;28;19925;-64
2023/08/15 03:23:00;;;;;;;;;;;;;;;22.06;59.10;101048.53;4151294;28;20332;-65
2023/08/15 03:25:03;;;;;;;;;;;;;;;22.06;59.06;101045.00;4149824;28;20502;-65
2023/08/15 03:27:04;;;;;;;;;;;;;;;22.06;58.96;101042.34;4150857;28;20388;-64
2023/08/15 03:29:06;;;;;;;;;;;;;;;22.06;58.83;101042.34;4150627;28;19929;-65
2023/08/15 03:31:08;;;;;;;;;;;;;;;22.05;58.90;101052.19;4151079;28;20290;-64
2023/08/15 03:33:10;;;;;;;;;;;;;;;22.05;59.05;101056.69;4150830;28;20303;-65
2023/08/15 03:35:11;;;;;;;;;;;;;;;22.05;59.00;101059.38;4149802;28;19925;-64
2023/08/15 03:37:13;;;;;;;;;;;;;;;22.04;58.87;101069.22;4150453;28;20013;-65
2023/08/15 03:39:15;;;;;;;;;;;;;;;22.03;59.08;101072.91;4150219;28;19952;-64
2023/08/15 03:41:16;;;;;;;;;;;;;;;22.04;59.21;101087.13;4150427;28;19968;-65
2023/08/15 03:43:18;;;;;;;;;;;;;;;22.02;59.19;101085.41;4150698;28;19930;-64
2023/08/15 03:45:19;;;;;;;;;;;;;;;22.02;58.98;101088.09;4149866;28;19930;-64
2023/08/15 03:47:21;;;;;;;;;;;;;;;22.02;59.22;101090.78;4150346;28;19933;-65
2023/08/15 03:49:23;;;;;;;;;;;;;;;22.01;58.87;101083.72;4150240;28;19932;-65
2023/08/15 03:51:24;;;;;;;;;;;;;;;22.02;59.08;101087.25;4149063;28;19968;-65
2023/08/15 03:53:46;;;;;;;;;;;;;;;22.00;59.16;101091.88;4150197;28;19931;-65
2023/08/15 03:55:51;;;;;;;;;;;;;;;22.01;59.07;101093.59;4149875;28;20012;-64
2023/08/15 03:57:52;;;;;;;;;;;;;;;22.00;59.17;101098.06;4150214;28;19953;-64
2023/08/15 03:59:54;;;;;;;;;;;;;;;22.00;59.08;101097.22;4150251;28;20036;-65
2023/08/15 04:01:55;;;;;;;;;;;;;;;22.00;59.14;101097.22;4150175;28;19929;-64
2023/08/15 04:03:59;;;;;;;;;;;;;;;22.00;58.96;101107.94;4150085;28;19941;-66
2023/08/15 04:06:01;;;;;;;;;;;;;;;21.99;59.42;101117.81;4149386;28;20008;-64
2023/08/15 04:08:03;;;;;;;;;;;;;;;21.98;58.96;101129.50;4149849;28;19944;-65
2023/08/15 04:10:04;;;;;;;;;;;;;;;21.99;59.20;101130.34;4150070;28;20110;-64
2023/08/15 04:12:06;;;;;;;;;;;;;;;21.98;59.06;101129.50;4149812;28;19926;-64
2023/08/15 04:14:08;;;;;;;;;;;;;;;21.98;59.15;101128.63;4149888;28;19925;-64
2023/08/15 04:16:11;;;;;;;;;;;;;;;21.98;59.17;101133.97;4148469;28;20402;-64
2023/08/15 04:18:13;;;;;;;;;;;;;;;21.97;59.32;101130.47;4148377;28;19926;-64
2023/08/15 04:20:14;;;;;;;;;;;;;;;21.97;59.17;101134.94;4149048;28;20459;-64
2023/08/15 04:22:16;;;;;;;;;;;;;;;21.95;59.14;101137.75;4149667;28;19926;-64
2023/08/15 04:24:19;;;;;;;;;;;;;;;21.96;59.10;101141.28;4149714;28;19929;-65
2023/08/15 04:26:21;;;;;;;;;;;;;;;21.96;59.18;101149.34;4149720;28;20445;-64
2023/08/15 04:28:22;;;;;;;;;;;;;;;21.96;59.36;101146.66;4148656;28;20012;-64
2023/08/15 04:30:24;;;;;;;;;;;;;;;21.95;59.16;101151.13;4149791;28;19931;-64
2023/08/15 04:32:25;;;;;;;;;;;;;;;21.95;59.17;101152.97;4149590;28;19933;-64
2023/08/15 04:34:27;;;;;;;;;;;;;;;21.94;59.04;101154.78;4149286;28;20421;-65
2023/08/15 04:36:28;;;;;;;;;;;;;;;21.94;59.28;101148.59;4149198;28;20444;-64
2023/08/15 04:38:30;;;;;;;;;;;;;;;21.95;59.10;101150.31;4149646;28;19932;-65
2023/08/15 04:40:37;;;;;;;;;;;;;;;21.94;58.98;101145.91;4149577;28;19957;-64
2023/08/15 04:42:41;;;;;;;;;;;;;;;21.93;59.19;101153.06;4149747;28;19926;-64
2023/08/15 04:44:42;;;;;;;;;;;;;;;21.94;59.35;101149.44;4149011;28;20095;-64
2023/08/15 04:46:44;;;;;;;;;;;;;;;21.93;59.33;101145.03;4149273;28;19925;-64
2023/08/15 04:48:45;;;;;;;;;;;;;;;21.94;59.07;101143.22;4149504;28;19963;-64
2023/08/15 04:50:47;;;;;;;;;;;;;;;21.93;59.25;101141.53;4149203;28;20013;-64
2023/08/15 04:52:49;;;;;;;;;;;;;;;21.92;59.25;101146.03;4148484;28;20295;-65
2023/08/15 04:54:51;;;;;;;;;;;;;;;21.92;59.27;101146.03;4148876;28;19929;-65
2023/08/15 04:56:52;;;;;;;;;;;;;;;21.92;59.34;101139.81;4149414;28;19948;-64
2023/08/15 04:58:54;;;;;;;;;;;;;;;21.92;59.21;101151.41;4149377;28;20371;-65
2023/08/15 05:00:56;;;;;;;;;;;;;;;21.93;59.13;101149.56;4149420;28;19956;-64
2023/08/15 05:02:57;;;;;;;;;;;;;;;21.92;59.27;101159.44;4149257;28;20024;-65
2023/08/15 05:04:59;;;;;;;;;;;;;;;21.91;59.33;101156.84;4148607;28;19925;-65
2023/08/15 05:07:00;;;;;;;;;;;;;;;21.92;59.36;101169.28;4148881;28;20421;-65
2023/08/15 05:09:02;;;;;;;;;;;;;;;21.92;59.26;101167.47;4149299;28;20390;-65
2023/08/15 05:11:03;;;;;;;;;;;;;;;21.91;59.36;101168.44;4149123;28;20379;-65
2023/08/15 05:13:05;;;;;;;;;;;;;;;21.91;59.26;101168.44;4149058;28;19925;-65
2023/08/15 05:15:07;;;;;;;;;;;;;;;21.91;59.02;101171.09;4148273;28;20350;-65
2023/08/15 05:17:09;;;;;;;;;;;;;;;21.89;59.41;101167.69;4147873;28;20017;-65
2023/08/15 05:19:11;;;;;;;;;;;;;;;21.90;59.37;101171.22;4149098;28;19991;-64
2023/08/15 05:21:12;;;;;;;;;;;;;;;21.90;59.33;101171.22;4148707;28;19926;-65
2023/08/15 05:23:15;;;;;;;;;;;;;;;21.91;59.23;101172.91;4148988;28;19987;-65
2023/08/15 05:25:17;;;;;;;;;;;;;;;21.90;59.37;101169.41;4148427;28;20383;-64
2023/08/15 05:27:18;;;;;;;;;;;;;;;21.90;59.05;101177.44;4148821;28;19984;-65
2023/08/15 05:29:21;;;;;;;;;;;;;;;21.89;59.03;101178.41;4149035;28;20020;-65
2023/08/15 05:31:22;;;;;;;;;;;;;;;21.89;59.11;101173.03;4148684;28;20016;-64
2023/08/15 05:33:24;;;;;;;;;;;;;;;21.89;59.19;101174.88;4148934;28;19925;-65
2023/08/15 05:35:26;;;;;;;;;;;;;;;21.89;59.25;101173.03;4147910;28;20018;-64
2023/08/15 05:37:27;;;;;;;;;;;;;;;21.89;59.37;101170.38;4148684;28;20382;-64
2023/08/15 05:39:29;;;;;;;;;;;;;;;21.89;59.18;101175.72;4148532;28;19925;-65
2023/08/15 05:41:31;;;;;;;;;;;;;;;21.89;58.80;101172.19;4148630;28;19931;-65
2023/08/15 05:43:32;;;;;;;;;;;;;;;21.89;59.04;101183.75;4148733;28;19948;-66
2023/08/15 05:45:34;;;;;;;;;;;;;;;21.89;59.13;101177.56;4147889;28;20037;-65
2023/08/15 05:47:35;;;;;;;;;;;;;;;21.90;59.14;101184.63;4148467;28;19926;-65
2023/08/15 05:49:37;;;;;;;;;;;;;;;21.89;59.21;101180.22;4148394;28;20370;-65
2023/08/15 05:51:39;;;;;;;;;;;;;;;21.89;59.25;101181.06;4148577;28;19925;-65
2023/08/15 05:53:40;;;;;;;;;;;;;;;21.90;59.20;101193.50;4148440;28;19972;-65
2023/08/15 05:55:42;;;;;;;;;;;;;;;21.90;59.10;101187.28;4147831;28;19932;-65
2023/08/15 05:57:44;;;;;;;;;;;;;;;21.89;59.17;101205.16;4148743;28;19926;-65
2023/08/15 05:59:45;;;;;;;;;;;;;;;21.88;58.94;101198.09;4148513;28;20298;-65
2023/08/15 06:01:47;;;;;;;;;;;;;;;21.89;58.98;101196.28;4148364;28;19925;-65
2023/08/15 06:03:48;;;;;;;;;;;;;;;21.89;59.12;101197.13;4148139;28;19929;-65
2023/08/15 06:05:56;;;;;;;;;;;;;;;21.88;59.16;101211.50;4147589;28;19933;-65
2023/08/15 06:07:59;;;;;;;;;;;;;;;21.89;58.93;101210.53;4148381;28;20395;-64
2023/08/15 06:10:00;;;;;;;;;;;;;;;21.89;59.30;101212.38;4148263;28;19936;-65
2023/08/15 06:12:04;;;;;;;;;;;;;;;21.90;58.75;101214.06;4163172;28;20020;-65
2023/08/15 06:14:05;;;;;;;;;;;;;;;21.88;58.92;101216.84;4148147;28;20367;-65
2023/08/15 06:16:07;;;;;;;;;;;;;;;21.89;59.22;101223.06;4147591;28;20005;-65
2023/08/15 06:18:10;;;;;;;;;;;;;;;21.88;59.22;101224.03;4147656;28;20005;-65
2023/08/15 06:20:12;;;;;;;;;;;;;;;21.89;58.79;101231.94;4148252;28;19926;-65
2023/08/15 06:22:15;;;;;;;;;;;;;;;21.89;59.22;101233.78;4148041;28;19925;-65
2023/08/15 06:24:16;;;;;;;;;;;;;;;21.89;59.12;101239.97;4148171;28;20395;-65
2023/08/15 06:26:18;;;;;;;;;;;;;;;21.88;58.86;101234.75;4147338;28;19997;-65
2023/08/15 06:28:20;;;;;;;;;;;;;;;21.88;59.23;101237.44;4148100;28;19925;-64
2023/08/15 06:30:22;;;;;;;;;;;;;;;21.88;59.21;101243.63;4148161;28;19925;-65
2023/08/15 06:32:24;;;;;;;;;;;;;;;21.87;59.35;101249.94;4147778;28;20048;-65
2023/08/15 06:34:25;;;;;;;;;;;;;;;21.85;59.27;101252.75;4146885;28;20303;-65
2023/08/15 06:36:27;;;;;;;;;;;;;;;21.86;58.92;101257.13;4147267;28;19925;-65
2023/08/15 06:38:28;;;;;;;;;;;;;;;21.86;58.93;101257.13;4148010;28;19930;-65
2023/08/15 06:40:31;;;;;;;;;;;;;;;21.87;59.01;101255.31;4148069;28;19925;-65
2023/08/15 06:42:32;;;;;;;;;;;;;;;21.86;59.03;101262.50;4147341;28;19926;-65
2023/08/15 06:44:34;;;;;;;;;;;;;;;21.86;59.11;101261.66;4147915;28;19932;-65
2023/08/15 06:46:35;;;;;;;;;;;;;;;21.85;59.15;101267.97;4146967;28;20302;-64
2023/08/15 06:48:37;;;;;;;;;;;;;;;21.86;59.01;101270.53;4147973;28;19929;-64
2023/08/15 06:50:39;;;;;;;;;;;;;;;21.86;58.91;101269.69;4147856;28;20403;-65
2023/08/15 06:52:40;;;;;;;;;;;;;;;21.85;59.12;101274.16;4147740;28;19964;-65
2023/08/15 06:54:42;;;;;;;;;;;;;;;21.86;59.02;101283.06;4148047;28;19925;-65
2023/08/15 06:56:43;;;;;;;;;;;;;;;21.84;59.21;101275.13;4147066;28;19925;-65
2023/08/15 06:58:45;;;;;;;;;;;;;;;21.85;59.02;101284.03;4147807;28;19934;-66
2023/08/15 07:00:47;;;;;;;;;;;;;;;21.85;59.34;101284.88;4147770;28;19952;-64
2023/08/15 07:02:48;;;;;;;;;;;;;;;21.86;59.02;101296.47;4147639;28;19930;-65
2023/08/15 07:04:50;;;;;;;;;;;;;;;21.85;59.00;101279.53;4147335;28;19925;-65
2023/08/15 07:06:52;;;;;;;;;;;;;;;21.86;59.19;101283.06;4147471;28;19926;-65
2023/08/15 07:08:54;;;;;;;;;;;;;;;21.86;58.86;101288.44;4147720;28;20020;-65
2023/08/15 07:10:56;;;;;;;;;;;;;;;21.85;59.05;101297.44;4147780;28;20004;-65
2023/08/15 07:12:58;;;;;;;;;;;;;;;21.86;58.96;101293.78;4147740;28;20364;-65
2023/08/15 07:15:00;;;;;;;;;;;;;;;21.86;59.18;101299.16;4147181;28;20359;-65
2023/08/15 07:17:01;;;;;;;;;;;;;;;21.86;58.85;101291.09;4147109;28;19980;-65
2023/08/15 07:19:04;;;;;;;;;;;;;;;21.86;59.00;101293.78;4147619;28;19926;-65
2023/08/15 07:21:05;;;;;;;;;;;;;;;21.87;59.18;101295.47;4147889;28;19925;-65
2023/08/15 07:23:07;;;;;;;;;;;;;;;21.87;58.96;101300.81;4147764;28;19979;-65
2023/08/15 07:25:09;;;;;;;;;;;;;;;21.88;59.04;101301.69;4147057;28;19969;-65
2023/08/15 07:27:10;;;;;;;;;;;;;;;21.88;58.83;101307.06;4147372;28;20315;-65
2023/08/15 07:29:12;;;;;;;;;;;;;;;21.88;59.10;101302.53;4147777;28;19948;-65
2023/08/15 07:31:15;;;;;;;;;;;;;;;21.88;58.85;101307.06;4147344;28;19926;-65
2023/08/15 07:33:17;;;;;;;;;;;;;;;21.88;59.17;101309.72;4147667;28;19926;-65
2023/08/15 07:35:18;;;;;;;;;;;;;;;21.90;58.95;101310.47;4147207;28;20376;-66
2023/08/15 07:37:20;;;;;;;;;;;;;;;21.91;58.91;101314.84;4147424;28;19940;-65
2023/08/15 07:39:21;;;;;;;;;;;;;;;21.92;58.80;101317.44;4147423;28;20421;-65
2023/08/15 07:41:23;;;;;;;;;;;;;;;21.94;58.93;101317.31;4147576;28;19926;-65
2023/08/15 07:43:24;;;;;;;;;;;;;;;21.95;58.74;101319.88;4147455;28;19926;-65
2023/08/15 07:45:26;;;;;;;;;;;;;;;21.97;58.72;101309.91;4146582;28;19925;-65
2023/08/15 07:47:28;;;;;;;;;;;;;;;21.99;58.78;101315.13;4147152;28;19926;-65
2023/08/15 07:49:30;;;;;;;;;;;;;;;22.00;58.71;101312.34;4147514;28;19936;-64
2023/08/15 07:51:32;;;;;;;;;;;;;;;22.02;58.47;101307.72;4147272;28;19953;-65
2023/08/15 07:53:33;;;;;;;;;;;;;;;22.05;58.47;101308.47;4147488;28;20354;-65
2023/08/15 07:55:37;;;;;;;;;;;;;;;22.06;58.58;101310.19;4148413;28;19997;-65
2023/08/15 07:57:38;;;;;;;;;;;;;;;22.08;58.44;101311.78;4150272;28;19967;-65
2023/08/15 07:59:40;;;;;;;;;;;;;;;22.09;58.27;101308.13;4149722;28;19929;-65
2023/08/15 08:01:41;;;;;;;;;;;;;;;22.09;58.10;101300.09;4150258;28;19968;-65
2023/08/15 08:03:43;;;;;;;;;;;;;;;22.10;58.33;101298.25;4148996;28;19944;-65
2023/08/15 08:05:45;;;;;;;;;;;;;;;22.12;58.40;101305.22;4149364;28;19936;-65
2023/08/15 08:07:47;;;;;;;;;;;;;;;22.13;58.28;101300.72;4150116;28;19925;-65
2023/08/15 08:09:48;;;;;;;;;;;;;;;22.14;58.28;101303.28;4150287;28;19926;-64
2023/08/15 08:11:52;;;;;;;;;;;;;;;22.15;58.21;101307.66;4149861;28;20045;-65
2023/08/15 08:13:53;;;;;;;;;;;;;;;22.16;58.03;101297.78;4149841;28;19925;-65
2023/08/15 08:15:55;;;;;;;;;;;;;;;22.17;58.07;101299.50;4149579;28;19926;-66
2023/08/15 08:17:56;;;;;;;;;;;;;;;22.17;58.26;101297.66;4149762;28;19948;-65
2023/08/15 08:19:58;;;;;;;;;;;;;;;22.19;58.01;101300.25;4150035;28;19965;-65
2023/08/15 08:21:59;;;;;;;;;;;;;;;22.21;58.15;101302.81;4149916;28;19975;-65
2023/08/15 08:24:06;;;;;;;;;;;;;;;22.23;58.15;101299.03;4149878;28;19925;-65
2023/08/15 08:26:12;;;;;;;;;;;;;;;22.24;58.02;101297.22;4149300;28;19948;-65
2023/08/15 08:28:14;;;;;;;;;;;;;;;22.24;58.03;101300.75;4149535;28;20422;-65
2023/08/15 08:30:17;;;;;;;;;;;;;;;22.25;58.20;101291.75;4150025;28;20413;-65
2023/08/15 08:32:18;;;;;;;;;;;;;;;22.25;58.01;101297.09;4148468;28;19926;-64
2023/08/15 08:34:21;;;;;;;;;;;;;;;22.27;58.08;101286.25;4148653;28;20421;-65
2023/08/15 08:36:27;;;;;;;;;;;;;;;22.27;58.21;101284.47;4149153;28;20036;-65
2023/08/15 08:38:29;;;;;;;;;;;;;;;22.25;58.20;101286.38;4148485;28;19976;-65
2023/08/15 08:40:31;;;;;;;;;;;;;;;22.26;58.24;101288.09;4149717;28;19930;-65
2023/08/15 08:42:34;;;;;;;;;;;;;;;22.27;58.27;101287.13;4149505;28;19931;-65
2023/08/15 08:44:36;;;;;;;;;;;;;;;22.28;57.98;101288.81;4148569;28;19933;-65
2023/08/15 08:46:39;;;;;;;;;;;;;;;22.27;57.99;101286.25;4149005;28;19984;-65
2023/08/15 08:48:41;;;;;;;;;;;;;;;22.26;58.21;101282.75;4149614;28;19983;-64
2023/08/15 08:50:44;;;;;;;;;;;;;;;22.27;58.29;101286.25;4149581;28;20355;-65
2023/08/15 08:52:49;;;;;;;;;;;;;;;22.27;58.23;101280.91;4148846;28;19932;-65
2023/08/15 08:54:50;;;;;;;;;;;;;;;22.27;58.56;101279.09;4149436;28;19972;-65
2023/08/15 08:56:58;;;;;;;;;;;;;;;22.28;58.18;101279.94;4148562;28;20326;-65
2023/08/15 08:59:09;;;;;;;;;;;;;;;22.29;58.42;101287.00;4149137;28;19965;-64
2023/08/15 09:01:12;;;;;;;;;;;;;;;22.30;58.24;101275.31;4149368;28;20294;-65
2023/08/15 09:03:14;;;;;;;;;;;;;;;22.32;58.10;101289.44;4149235;28;19925;-64
2023/08/15 09:05:16;;;;;;;;;;;;;;;22.36;57.99;101290.94;4148924;28;19929;-65
2023/08/15 09:07:18;;;;;;;;;;;;;;;22.39;57.86;101290.72;4148733;28;19929;-65
2023/08/15 09:09:20;;;;;;;;;;;;;;;22.42;57.95;101292.28;4149256;28;20450;-64
2023/08/15 09:11:21;;;;;;;;;;;;;;;22.45;57.85;101287.56;4149027;28;19937;-65
2023/08/15 09:13:26;;;;;;;;;;;;;;;22.48;57.67;101290.00;4147783;28;20004;-63
2023/08/15 09:15:27;;;;;;;;;;;;;;;22.51;57.68;101294.28;4148511;28;19925;-63
2023/08/15 09:17:31;;;;;;;;;;;;;;;22.54;57.48;101293.19;4147754;28;19929;-64
2023/08/15 09:19:38;;;;;;;;;;;;;;;22.57;57.66;101292.97;4149146;28;19933;-64
2023/08/15 09:21:41;;;;;;;;;;;;;;;22.58;57.53;101295.50;4148969;28;19964;-64
2023/08/15 09:23:47;;;;;;;;;;;;;;;22.60;57.82;101298.94;4148958;28;19960;-64
2023/08/15 09:25:55;;;;;;;;;;;;;;;22.61;57.69;101297.09;4148404;28;20047;-65
2023/08/15 09:27:58;;;;;;;;;;;;;;;22.58;57.58;101292.84;4148641;28;19929;-65
2023/08/15 09:30:07;;;;;;;;;;;;;;;22.59;57.62;101299.03;4148853;28;19968;-64
2023/08/15 09:32:09;;;;;;;;;;;;;;;22.59;57.77;101299.03;4148886;28;19926;-65
2023/08/15 09:34:11;;;;;;;;;;;;;;;22.60;57.69;101306.09;4148852;28;20383;-65
2023/08/15 09:36:13;;;;;;;;;;;;;;;22.61;57.28;101299.78;4147983;28;19925;-64
2023/08/15 09:38:19;;;;;;;;;;;;;;;22.61;57.48;101299.78;4148574;28;20310;-65
2023/08/15 09:40:26;;;;;;;;;;;;;;;22.57;57.70;101301.00;4149177;28;20023;-65
2023/08/15 09:42:28;;;;;;;;;;;;;;;22.56;57.35;101302.81;4148397;28;20331;-65
2023/08/15 09:44:40;;;;;;;;;;;;;;;22.57;57.60;101303.69;4148719;28;19932;-63
2023/08/15 09:46:43;;;;;;;;;;;;;;;22.58;57.27;101308.06;4148056;28;20450;-65
2023/08/15 09:48:46;;;;;;;;;;;;;;;22.57;57.70;101303.69;4148777;28;19925;-64
2023/08/15 09:50:48;;;;;;;;;;;;;;;22.57;57.59;101307.22;4148684;28;19926;-65
2023/08/15 09:52:51;;;;;;;;;;;;;;;22.58;57.17;101302.72;4148566;28;19960;-65
2023/08/15 09:54:54;;;;;;;;;;;;;;;22.58;57.45;101310.75;4148683;28;19931;-64
2023/08/15 09:56:57;;;;;;;;;;;;;;;22.60;57.49;101306.09;4147598;28;19929;-64
2023/08/15 09:58:58;;;;;;;;;;;;;;;22.62;57.58;101301.50;4148182;28;19925;-64
2023/08/15 10:01:02;;;;;;;;;;;;;;;22.62;57.43;101302.34;4148410;28;20426;-65
2023/08/15 10:03:14;;;;;;;;;;;;;;;22.61;57.37;101297.97;4148550;28;20346;-64
2023/08/15 10:05:18;;;;;;;;;;;;;;;22.63;57.14;101292.47;4148327;28;19972;-64
2023/08/15 10:07:21;;;;;;;;;;;;;;;22.64;57.29;101302.25;4146258;28;20343;-65
2023/08/15 10:09:24;;;;;;;;;;;;;;;22.64;57.37;101295.03;4148467;28;20386;-65
2023/08/15 10:11:28;;;;;;;;;;;;;;;22.66;57.26;101297.59;4148035;28;20015;-64
2023/08/15 10:13:31;;;;;;;;;;;;;;;22.69;57.02;101296.53;4147277;28;19955;-64
2023/08/15 10:15:33;;;;;;;;;;;;;;;22.68;57.11;101298.34;4147904;28;19937;-65
2023/08/15 10:17:35;;;;;;;;;;;;;;;22.70;57.13;101303.56;4147451;28;20004;-65
2023/08/15 10:19:37;;;;;;;;;;;;;;;22.70;57.11;101304.44;4148271;28;19926;-64
2023/08/15 10:21:51;;;;;;;;;;;;;;;22.69;57.18;101297.38;4148446;28;19925;-64
2023/08/15 10:23:54;;;;;;;;;;;;;;;22.69;56.98;101301.88;4148207;28;19925;-65
2023/08/15 10:25:57;;;;;;;;;;;;;;;22.68;57.15;101302.84;4147087;28;20028;-64
2023/08/15 10:27:59;;;;;;;;;;;;;;;22.66;57.15;101302.94;4146850;28;19929;-64